Parnell, Missouri
Current Conditions -  °F | °C
As of 8:55 PM on Tuesday 21 Oct 2014 (Local Time) from KICL Reporting Station
Clear Clear  
Wind Chill: 57°   Ceiling: Unl
Heat Index: 57°   Visibility: 10mi
Dew Point: 43°   Wind: 6mph
Humidity: 59%   Direction: 100°E
Pressure: 30.1"   Gusts: NA
Location:  40.44°N, 94.62°W
Report Text: KICL 220155Z AUTO 10005KT 10SM CLR 14/06 A3010 RMK AO2
Loading
Personal Weather Stations






























Interactive Weather Map
Tropical Storm Tracking
New forecast layout! Learn more

10-Day Weather Forecast

Advertisements
Track Severe Weather on mobile